aviador You're here:

LKCV Decoded Metar

CASLAV in CZECH REPUBLIC
Report Time2018-06-25 06:00:00
UTC Time2018-06-25 06:14:25
Flight Rules mvfr MVFR
Wind300° at 07 kt
W.Decomp.*RWY 32: 6.4 kt HW 2.7 kt LCW
W.Rank300° ranks 2
Current wind is below 300° avg. (8.1)
Visibility9999 m
Phenomena:N/A
Clouds:Overcast 014 Hf
Expected CloudBase > 1,200 ft AGL from Temp-Dew spread
Ceiling1,400 ft
Temp13°C (ISA -0)
Dew Point10°C (82% RH)
AAT10.5°C
QNH1020 hPa
Density Alt676 ft
Elevation794 ft
Report Wrong Elevation
Raw Report
LKCV 250600Z 30007KT 9999 OVC014 13/10 Q1020 NOSIG=

Extra information for LKCV:More info

Metar Taf Metar & Taf Last 4 Metars F.Rules Stats Wind Profile Meteogram Temp Stats Airport Information Weather charts Add Link Nearby VenuesMetar ALERT Operation Metar Decoded Social comments